Terminal Aerodrome Forecast
Issued by NWS Binghamton, NY

Home | Current Version | Previous Version | Text Only | Print | Product List | Glossary On
Versions: 1 2 3 4 5 6 7 8 9 10 11 12 13 14 15 16
000
FTUS41 KBGM 061742
TAFSYR
TAF
KSYR 061742Z 0618/0718 02007KT P6SM SCT050 OVC100
     FM061900 35008KT P6SM -SHRA OVC050
      TEMPO 0621/0624 5SM -SHRA BR OVC025
     FM070000 07004KT 5SM -SHRA BR OVC025
     FM070600 10004KT P6SM BKN025
     FM071200 15005KT P6SM SCT025=

USA.gov is the U.S. government's official web portal to all federal, state and local government web resources and services.